createdAt,value
2023-02-04T00:02:07.969Z,37.17
2023-02-04T00:07:12.169Z,36.90
2023-02-04T00:12:15.256Z,36.72
2023-02-04T00:17:18.298Z,36.78
2023-02-04T00:22:22.542Z,36.63
2023-02-04T00:27:25.418Z,38.00
2023-02-04T00:32:28.338Z,37.70
2023-02-04T00:37:32.678Z,36.83
2023-02-04T00:42:35.559Z,39.50
2023-02-04T00:47:38.444Z,37.20
2023-02-04T00:52:42.630Z,37.28
2023-02-04T00:57:47.018Z,37.22
2023-02-04T01:02:50.129Z,36.97
2023-02-04T01:07:54.626Z,37.33
2023-02-04T01:12:57.565Z,36.47
2023-02-04T01:18:00.469Z,36.40
2023-02-04T01:23:04.974Z,37.08
2023-02-04T01:28:07.923Z,36.60
2023-02-04T01:33:10.816Z,36.85
2023-02-04T01:38:15.093Z,36.70
2023-02-04T01:43:18.766Z,37.28
2023-02-04T01:48:23.680Z,37.30
2023-02-04T01:53:27.971Z,37.15
2023-02-04T01:58:33.269Z,36.63
2023-02-04T02:03:36.190Z,36.97
2023-02-04T02:08:40.557Z,37.05
2023-02-04T02:13:43.605Z,36.88
2023-02-04T02:18:46.534Z,37.33
2023-02-04T02:23:53.573Z,36.42
2023-02-04T02:28:56.628Z,41.33
2023-02-04T02:33:59.530Z,37.05
2023-02-04T02:39:03.754Z,37.28
2023-02-04T02:44:06.871Z,37.55
2023-02-04T02:49:15.529Z,37.47
2023-02-04T02:54:24.853Z,37.05
2023-02-04T02:59:30.542Z,37.35
2023-02-04T03:04:38.844Z,36.72
2023-02-04T03:09:45.048Z,37.70
2023-02-04T03:14:48.170Z,37.28
2023-02-04T03:19:51.606Z,37.35
2023-02-04T03:24:58.352Z,37.53
2023-02-04T03:30:01.435Z,37.22
2023-02-04T03:35:04.953Z,37.00
2023-02-04T03:40:10.629Z,37.33
2023-02-04T03:45:13.925Z,37.80
2023-02-04T03:50:17.101Z,37.25
2023-02-04T03:55:21.627Z,37.80
2023-02-04T04:00:24.720Z,37.38
2023-02-04T04:05:28.488Z,37.53
2023-02-04T04:10:32.962Z,38.50
2023-02-04T04:15:36.034Z,37.65
2023-02-04T04:20:38.980Z,38.08
2023-02-04T04:25:43.184Z,38.53
2023-02-04T04:30:46.791Z,37.10
2023-02-04T04:35:49.778Z,37.33
2023-02-04T04:40:54.350Z,36.80
2023-02-04T04:45:57.339Z,37.10
2023-02-04T04:51:01.350Z,37.08
2023-02-04T04:56:05.902Z,37.10
2023-02-04T05:01:08.911Z,37.05
2023-02-04T05:06:13.043Z,37.67
2023-02-04T05:11:17.248Z,37.85
2023-02-04T05:16:20.224Z,38.97
2023-02-04T05:21:23.097Z,37.97
2023-02-04T05:26:30.475Z,37.65
2023-02-04T05:31:34.190Z,37.75
2023-02-04T05:36:37.160Z,37.83
2023-02-04T05:41:41.440Z,37.70
2023-02-04T05:46:44.366Z,38.33
2023-02-04T05:51:47.249Z,37.40
2023-02-04T05:56:51.816Z,37.60
2023-02-04T06:01:55.215Z,37.75
2023-02-04T06:06:58.236Z,37.83
2023-02-04T06:12:02.470Z,40.35
2023-02-04T06:17:05.408Z,37.65
2023-02-04T06:22:08.294Z,38.70
2023-02-04T06:27:12.494Z,38.63
2023-02-04T06:32:22.393Z,37.67
2023-02-04T06:37:25.321Z,37.40
2023-02-04T06:42:29.573Z,37.80
2023-02-04T06:47:32.529Z,41.72
2023-02-04T06:52:35.373Z,38.08
2023-02-04T06:57:39.813Z,38.17
2023-02-04T07:02:44.022Z,37.25
2023-02-04T07:07:46.977Z,39.20
2023-02-04T07:12:51.173Z,37.90
2023-02-04T07:17:54.038Z,38.30
2023-02-04T07:22:56.880Z,37.42
2023-02-04T07:28:02.016Z,36.45
2023-02-04T07:33:05.057Z,37.33
2023-02-04T07:38:08.453Z,39.22
2023-02-04T07:43:12.697Z,41.55
2023-02-04T07:48:15.627Z,40.30
2023-02-04T07:53:18.514Z,41.42
2023-02-04T07:58:22.845Z,41.67
2023-02-04T08:03:25.827Z,42.38
2023-02-04T08:08:28.770Z,37.47
2023-02-04T08:13:33.000Z,39.60
2023-02-04T08:18:35.871Z,41.40
2023-02-04T08:23:41.696Z,37.78
2023-02-04T08:28:49.095Z,41.72
2023-02-04T08:33:51.981Z,40.85
2023-02-04T08:38:54.875Z,41.75
2023-02-04T08:43:59.088Z,38.47
2023-02-04T08:49:02.019Z,42.00
2023-02-04T08:54:05.093Z,38.10
2023-02-04T08:59:09.372Z,41.55
2023-02-04T09:04:12.325Z,42.05
2023-02-04T09:09:15.569Z,40.20
2023-02-04T09:14:19.811Z,39.92
2023-02-04T09:19:25.498Z,38.95
2023-02-04T09:24:28.764Z,46.28
2023-02-04T09:29:33.003Z,47.55
2023-02-04T09:34:35.897Z,42.97
2023-02-04T09:39:38.765Z,45.72
2023-02-04T09:44:45.301Z,41.95
2023-02-04T09:49:48.202Z,41.47
2023-02-04T09:54:51.050Z,39.88
2023-02-04T09:59:55.383Z,40.60
2023-02-04T10:04:59.294Z,39.80
2023-02-04T10:10:02.953Z,39.67
2023-02-04T10:15:11.043Z,41.97
2023-02-04T10:20:15.539Z,43.55
2023-02-04T10:25:20.393Z,42.85
2023-02-04T10:30:26.599Z,40.95
2023-02-04T10:35:29.591Z,42.13
2023-02-04T10:40:34.294Z,42.58
2023-02-04T10:45:39.351Z,44.13
2023-02-04T10:50:42.201Z,45.30
2023-02-04T10:55:46.529Z,40.95
2023-02-04T11:00:50.788Z,41.28
2023-02-04T11:05:56.830Z,44.92
2023-02-04T11:11:02.839Z,39.60
2023-02-04T11:16:14.024Z,39.28
2023-02-04T11:21:24.119Z,37.40
2023-02-04T11:26:35.431Z,41.83
2023-02-04T11:31:57.629Z,39.15
2023-02-04T11:37:13.735Z,42.83
2023-02-04T11:42:22.820Z,42.33
2023-02-04T11:47:28.617Z,46.20
2023-02-04T11:52:31.495Z,44.38
2023-02-04T11:57:40.331Z,42.63
2023-02-04T12:02:47.424Z,40.75
2023-02-04T12:07:50.511Z,42.25
2023-02-04T12:12:57.581Z,41.25
2023-02-04T12:18:07.567Z,49.22
2023-02-04T12:23:10.474Z,41.53
2023-02-04T12:28:13.397Z,41.40
2023-02-04T12:33:18.022Z,40.65
2023-02-04T12:38:20.986Z,39.97
2023-02-04T12:43:26.118Z,39.33
2023-02-04T12:48:31.742Z,44.47
2023-02-04T12:53:34.893Z,41.92
2023-02-04T12:58:37.780Z,40.78
2023-02-04T13:03:42.017Z,43.00
2023-02-04T13:08:44.926Z,39.97
2023-02-04T13:13:56.028Z,42.35
2023-02-04T13:19:00.279Z,44.25
2023-02-04T13:24:03.158Z,42.15
2023-02-04T13:29:06.203Z,44.67
2023-02-04T13:34:14.806Z,39.50
2023-02-04T13:39:17.740Z,45.65
2023-02-04T13:44:20.698Z,40.40
2023-02-04T13:49:25.243Z,43.05
2023-02-04T13:54:29.246Z,41.30
2023-02-04T13:59:32.488Z,46.88
2023-02-04T14:04:44.208Z,43.38
2023-02-04T14:09:48.582Z,43.70
2023-02-04T14:14:51.498Z,41.05
2023-02-04T14:19:55.723Z,41.17
2023-02-04T14:24:58.734Z,43.30
2023-02-04T14:30:01.684Z,41.92
2023-02-04T14:35:06.706Z,38.20
2023-02-04T14:40:12.545Z,38.30
2023-02-04T14:45:16.337Z,38.97
2023-02-04T14:50:26.878Z,39.97
2023-02-04T14:55:29.744Z,42.05
2023-02-04T15:00:32.981Z,44.72
2023-02-04T15:05:37.703Z,42.95
2023-02-04T15:10:41.350Z,45.00
2023-02-04T15:15:44.383Z,45.65
2023-02-04T15:20:48.727Z,41.95
2023-02-04T15:26:06.963Z,40.85
2023-02-04T15:31:10.692Z,40.60
2023-02-04T15:36:15.098Z,40.78
2023-02-04T15:41:18.024Z,38.85
2023-02-04T15:46:20.951Z,39.47
2023-02-04T15:51:26.424Z,41.95
2023-02-04T15:56:29.314Z,40.75
2023-02-04T16:01:32.263Z,39.10
2023-02-04T16:06:36.593Z,42.63
2023-02-04T16:11:40.827Z,38.35
2023-02-04T16:16:43.704Z,44.22
2023-02-04T16:21:47.919Z,40.15
2023-02-04T16:26:50.823Z,48.65
2023-02-04T16:31:53.978Z,43.25
2023-02-04T16:36:58.276Z,42.85
2023-02-04T16:42:01.210Z,43.92
2023-02-04T16:47:04.142Z,38.55
2023-02-04T16:52:09.444Z,43.33
2023-02-04T16:57:14.638Z,40.28
2023-02-04T17:02:17.556Z,43.20
2023-02-04T17:07:21.783Z,42.40
2023-02-04T17:12:25.788Z,45.67
2023-02-04T17:17:28.628Z,58.65
2023-02-04T17:22:32.826Z,59.40
2023-02-04T17:27:35.934Z,45.22
2023-02-04T17:32:39.023Z,50.22
2023-02-04T17:37:43.238Z,45.47
2023-02-04T17:42:46.418Z,49.67
2023-02-04T17:47:49.379Z,41.22
2023-02-04T17:52:53.553Z,43.50
2023-02-04T17:57:57.207Z,41.35
2023-02-04T18:03:00.536Z,44.95
2023-02-04T18:08:13.790Z,50.67
2023-02-04T18:13:18.241Z,43.88
2023-02-04T18:18:24.092Z,47.33
2023-02-04T18:23:30.473Z,44.58
2023-02-04T18:28:36.721Z,38.92
2023-02-04T18:33:41.557Z,42.90
2023-02-04T18:38:45.977Z,38.67
2023-02-04T18:43:51.384Z,40.35
2023-02-04T18:49:00.773Z,43.20
2023-02-04T18:54:27.342Z,37.30
2023-02-04T18:59:30.270Z,40.75
2023-02-04T19:04:34.644Z,43.13
2023-02-04T19:09:39.009Z,40.17
2023-02-04T19:14:44.214Z,38.25
2023-02-04T19:19:55.366Z,39.20
2023-02-04T19:25:01.882Z,55.45
2023-02-04T19:30:40.559Z,59.72
2023-02-04T19:35:45.091Z,57.72
2023-02-04T19:40:52.303Z,50.88
2023-02-04T19:45:56.273Z,43.92
2023-02-04T19:51:00.581Z,43.63
2023-02-04T19:56:29.579Z,41.28
2023-02-04T20:01:34.427Z,42.35
2023-02-04T20:06:37.491Z,43.90
2023-02-04T20:11:59.546Z,51.38
2023-02-04T20:17:11.241Z,43.90
2023-02-04T20:22:48.245Z,38.58
2023-02-04T20:27:55.368Z,38.63
2023-02-04T20:33:00.756Z,38.00
2023-02-04T20:38:14.166Z,41.83
2023-02-04T20:43:20.307Z,43.80
2023-02-04T20:48:32.548Z,49.65
2023-02-04T20:53:39.591Z,42.47
2023-02-04T20:58:46.576Z,48.50
2023-02-04T21:03:51.246Z,45.83
2023-02-04T21:08:55.476Z,40.08
2023-02-04T21:13:59.694Z,44.15
2023-02-04T21:19:02.583Z,49.72
2023-02-04T21:24:06.055Z,47.47
2023-02-04T21:29:11.361Z,42.63
2023-02-04T21:34:15.772Z,40.38
2023-02-04T21:39:20.702Z,39.70
2023-02-04T21:44:24.932Z,37.72
2023-02-04T21:49:33.985Z,38.47
2023-02-04T21:54:36.955Z,37.33
2023-02-04T21:59:42.790Z,39.35
2023-02-04T22:04:45.654Z,36.53
2023-02-04T22:09:50.036Z,39.35
2023-02-04T22:14:54.374Z,39.78
2023-02-04T22:19:57.644Z,44.45
2023-02-04T22:25:00.559Z,43.33
2023-02-04T22:30:05.402Z,41.42
2023-02-04T22:35:10.122Z,38.65
2023-02-04T22:40:14.069Z,38.65
2023-02-04T22:45:18.577Z,42.55
2023-02-04T22:50:21.640Z,41.45
2023-02-04T22:55:24.583Z,40.92
2023-02-04T23:00:29.119Z,43.85
2023-02-04T23:05:32.561Z,40.22
2023-02-04T23:10:37.551Z,45.45
2023-02-04T23:15:43.415Z,51.80
2023-02-04T23:20:46.534Z,43.58
2023-02-04T23:25:50.036Z,42.85
2023-02-04T23:30:54.444Z,44.95
2023-02-04T23:35:57.493Z,45.58
2023-02-04T23:41:00.562Z,48.40
2023-02-04T23:46:05.154Z,39.67
2023-02-04T23:51:08.102Z,37.92
2023-02-04T23:56:11.013Z,39.30
